createdAt,value
2023-02-07T00:01:19.702Z,1.85
2023-02-07T00:03:48.407Z,2.10
2023-02-07T00:06:27.309Z,2.15
2023-02-07T00:08:54.766Z,2.22
2023-02-07T00:11:23.403Z,2.45
2023-02-07T00:13:54.111Z,2.47
2023-02-07T00:16:21.567Z,2.50
2023-02-07T00:18:48.953Z,2.10
2023-02-07T00:21:19.676Z,2.08
2023-02-07T00:23:47.363Z,2.17
2023-02-07T00:26:16.043Z,2.05
2023-02-07T00:28:45.322Z,2.10
2023-02-07T00:31:17.112Z,2.50
2023-02-07T00:33:45.683Z,1.73
2023-02-07T00:36:21.614Z,2.40
2023-02-07T00:38:49.743Z,2.38
2023-02-07T00:41:18.845Z,2.13
2023-02-07T00:43:47.444Z,2.22
2023-02-07T00:46:14.770Z,2.28
2023-02-07T00:48:41.693Z,1.98
2023-02-07T00:51:10.423Z,2.25
2023-02-07T00:53:37.916Z,2.20
2023-02-07T00:56:04.938Z,2.38
2023-02-07T00:58:31.780Z,2.15
2023-02-07T01:00:58.797Z,2.30
2023-02-07T01:03:25.724Z,2.40
2023-02-07T01:05:52.720Z,2.20
2023-02-07T01:08:19.681Z,2.42
2023-02-07T01:10:46.997Z,2.15
2023-02-07T01:13:15.831Z,2.22
2023-02-07T01:15:45.631Z,2.05
2023-02-07T01:18:12.990Z,2.55
2023-02-07T01:20:40.405Z,3.33
2023-02-07T01:23:07.606Z,2.53
2023-02-07T01:25:34.760Z,2.90
2023-02-07T01:28:04.319Z,2.58
2023-02-07T01:30:31.300Z,2.60
2023-02-07T01:32:58.400Z,2.50
2023-02-07T01:35:25.414Z,2.33
2023-02-07T01:37:53.748Z,2.40
2023-02-07T01:40:21.210Z,3.03
2023-02-07T01:42:49.335Z,2.58
2023-02-07T01:45:40.281Z,2.60
2023-02-07T01:48:19.983Z,2.63
2023-02-07T01:50:49.228Z,2.58
2023-02-07T01:53:19.103Z,2.53
2023-02-07T01:55:48.955Z,3.15
2023-02-07T01:58:17.364Z,2.97
2023-02-07T02:00:45.130Z,3.33
2023-02-07T02:03:11.886Z,3.38
2023-02-07T02:05:39.932Z,3.20
2023-02-07T02:08:07.173Z,3.03
2023-02-07T02:10:50.635Z,3.30
2023-02-07T02:13:52.171Z,2.88
2023-02-07T02:16:30.841Z,2.78
2023-02-07T02:19:17.793Z,2.95
2023-02-07T02:22:11.878Z,2.80
2023-02-07T02:24:44.917Z,3.42
2023-02-07T02:27:28.296Z,3.05
2023-02-07T02:30:37.718Z,3.00
2023-02-07T02:33:23.449Z,3.10
2023-02-07T02:36:09.486Z,2.88
2023-02-07T02:38:53.847Z,2.72
2023-02-07T02:41:35.300Z,3.08
2023-02-07T02:44:16.147Z,3.85
2023-02-07T02:46:45.072Z,3.70
2023-02-07T02:49:14.955Z,3.58
2023-02-07T02:51:42.269Z,4.03
2023-02-07T02:54:35.626Z,4.45
2023-02-07T02:57:35.973Z,4.38
2023-02-07T03:00:09.061Z,4.38
2023-02-07T03:03:04.393Z,4.53
2023-02-07T03:06:01.097Z,4.57
2023-02-07T03:08:36.739Z,4.30
2023-02-07T03:11:15.914Z,4.47
2023-02-07T03:14:06.903Z,4.50
2023-02-07T03:16:57.864Z,4.70
2023-02-07T03:19:26.803Z,4.85
2023-02-07T03:21:58.890Z,5.00
2023-02-07T03:24:36.243Z,4.78
2023-02-07T03:27:09.523Z,4.45
2023-02-07T03:29:39.926Z,4.40
2023-02-07T03:32:09.039Z,4.10
2023-02-07T03:34:43.568Z,4.38
2023-02-07T03:37:26.183Z,4.18
2023-02-07T03:39:53.487Z,5.43
2023-02-07T03:42:28.104Z,4.72
2023-02-07T03:44:57.412Z,5.57
2023-02-07T03:47:26.145Z,5.45
2023-02-07T03:49:53.295Z,4.38
2023-02-07T03:52:20.110Z,5.40
2023-02-07T03:54:46.931Z,4.97
2023-02-07T03:57:13.757Z,5.38
2023-02-07T03:59:40.672Z,5.65
2023-02-07T04:02:07.525Z,5.53
2023-02-07T04:04:34.552Z,6.00
2023-02-07T04:07:01.330Z,4.32
2023-02-07T04:09:28.241Z,5.60
2023-02-07T04:11:55.047Z,5.65
2023-02-07T04:14:22.360Z,5.38
2023-02-07T04:16:50.099Z,4.50
2023-02-07T04:19:17.534Z,5.10
2023-02-07T04:21:44.426Z,4.43
2023-02-07T04:24:11.787Z,5.20
2023-02-07T04:26:38.945Z,4.82
2023-02-07T04:29:06.841Z,5.13
2023-02-07T04:31:34.045Z,5.32
2023-02-07T04:34:00.908Z,4.80
2023-02-07T04:36:29.810Z,5.85
2023-02-07T04:38:56.765Z,5.10
2023-02-07T04:41:24.575Z,5.60
2023-02-07T04:43:51.418Z,6.50
2023-02-07T04:46:18.333Z,5.65
2023-02-07T04:48:45.287Z,5.18
2023-02-07T04:51:12.292Z,5.50
2023-02-07T04:53:39.123Z,5.13
2023-02-07T04:56:06.245Z,5.25
2023-02-07T04:58:33.221Z,5.57
2023-02-07T05:01:00.347Z,6.10
2023-02-07T05:03:27.241Z,6.07
2023-02-07T05:05:55.386Z,5.47
2023-02-07T05:08:22.901Z,6.35
2023-02-07T05:10:56.297Z,5.95
2023-02-07T05:13:23.972Z,5.88
2023-02-07T05:15:51.344Z,6.40
2023-02-07T05:18:18.660Z,6.00
2023-02-07T05:20:45.497Z,4.65
2023-02-07T05:23:12.376Z,6.25
2023-02-07T05:25:41.054Z,5.68
2023-02-07T05:28:07.915Z,6.10
2023-02-07T05:30:34.995Z,6.35
2023-02-07T05:33:04.548Z,5.90
2023-02-07T05:35:39.877Z,5.60
2023-02-07T05:38:10.563Z,6.05
2023-02-07T05:40:38.743Z,4.97
2023-02-07T05:43:06.215Z,5.25
2023-02-07T05:45:33.699Z,6.82
2023-02-07T05:48:00.544Z,5.65
2023-02-07T05:50:27.856Z,6.20
2023-02-07T05:53:05.394Z,5.55
2023-02-07T05:55:32.301Z,5.75
2023-02-07T05:57:59.116Z,6.15
2023-02-07T06:00:26.235Z,5.25
2023-02-07T06:02:53.263Z,5.57
2023-02-07T06:05:20.507Z,6.63
2023-02-07T06:07:47.581Z,6.10
2023-02-07T06:10:14.880Z,6.28
2023-02-07T06:12:41.812Z,7.15
2023-02-07T06:15:09.456Z,6.60
2023-02-07T06:17:36.406Z,6.38
2023-02-07T06:20:03.994Z,6.22
2023-02-07T06:22:30.773Z,5.72
2023-02-07T06:24:57.566Z,6.03
2023-02-07T06:27:24.338Z,5.63
2023-02-07T06:29:51.126Z,6.38
2023-02-07T06:32:17.986Z,6.90
2023-02-07T06:34:44.830Z,6.60
2023-02-07T06:37:12.205Z,6.65
2023-02-07T06:39:39.540Z,6.95
2023-02-07T06:42:06.783Z,6.38
2023-02-07T06:44:33.571Z,6.57
2023-02-07T06:47:00.365Z,6.25
2023-02-07T06:49:27.154Z,6.45
2023-02-07T06:51:53.942Z,6.57
2023-02-07T06:54:20.839Z,6.63
2023-02-07T06:56:47.662Z,7.60
2023-02-07T06:59:14.723Z,6.80
2023-02-07T07:01:42.135Z,6.85
2023-02-07T07:04:09.405Z,7.47
2023-02-07T07:06:36.537Z,7.05
2023-02-07T07:09:04.238Z,6.78
2023-02-07T07:11:31.480Z,7.53
2023-02-07T07:14:00.336Z,7.13
2023-02-07T07:16:27.130Z,8.68
2023-02-07T07:18:53.946Z,8.07
2023-02-07T07:21:20.733Z,8.75
2023-02-07T07:23:47.515Z,8.05
2023-02-07T07:26:14.368Z,8.40
2023-02-07T07:28:42.294Z,7.72
2023-02-07T07:31:09.383Z,10.10
2023-02-07T07:33:37.191Z,9.68
2023-02-07T07:36:04.835Z,10.15
2023-02-07T07:38:32.912Z,8.93
2023-02-07T07:41:00.559Z,9.32
2023-02-07T07:43:27.419Z,10.98
2023-02-07T07:45:56.911Z,9.73
2023-02-07T07:48:25.245Z,11.40
2023-02-07T07:50:53.318Z,9.95
2023-02-07T07:53:21.292Z,9.93
2023-02-07T07:55:53.150Z,10.55
2023-02-07T07:58:21.581Z,10.15
2023-02-07T08:00:48.875Z,8.60
2023-02-07T08:03:17.501Z,9.35
2023-02-07T08:05:45.171Z,9.57
2023-02-07T08:08:13.550Z,10.70
2023-02-07T08:10:41.440Z,9.82
2023-02-07T08:13:08.580Z,10.27
2023-02-07T08:15:35.489Z,9.43
2023-02-07T08:18:02.336Z,9.90
2023-02-07T08:20:29.321Z,11.10
2023-02-07T08:22:57.619Z,10.65
2023-02-07T08:25:25.218Z,9.35
2023-02-07T08:27:52.454Z,9.68
2023-02-07T08:30:19.685Z,9.40
2023-02-07T08:32:46.490Z,9.13
2023-02-07T08:35:13.371Z,9.15
2023-02-07T08:37:40.353Z,9.18
2023-02-07T08:40:07.693Z,8.40
2023-02-07T08:42:34.498Z,8.70
2023-02-07T08:45:01.301Z,9.20
2023-02-07T08:47:28.113Z,9.30
2023-02-07T08:49:54.884Z,9.15
2023-02-07T08:52:21.754Z,9.10
2023-02-07T08:54:48.810Z,8.35
2023-02-07T08:57:16.165Z,8.98
2023-02-07T08:59:42.964Z,8.95
2023-02-07T09:02:12.248Z,9.30
2023-02-07T09:04:41.515Z,9.52
2023-02-07T09:07:08.966Z,8.65
2023-02-07T09:09:35.898Z,9.15
2023-02-07T09:12:03.159Z,9.75
2023-02-07T09:14:30.113Z,9.70
2023-02-07T09:16:57.062Z,10.73
2023-02-07T09:19:23.874Z,9.65
2023-02-07T09:21:50.709Z,9.20
2023-02-07T09:24:17.511Z,10.02
2023-02-07T09:26:44.349Z,10.43
2023-02-07T09:29:14.643Z,8.68
2023-02-07T09:31:42.329Z,8.85
2023-02-07T09:34:09.443Z,8.98
2023-02-07T09:36:36.864Z,9.25
2023-02-07T09:39:05.458Z,9.25
2023-02-07T09:42:16.373Z,9.20
2023-02-07T09:45:10.658Z,9.02
2023-02-07T09:47:41.529Z,8.27
2023-02-07T09:50:15.436Z,8.93
2023-02-07T09:52:56.583Z,7.57
2023-02-07T09:55:32.655Z,7.93
2023-02-07T09:58:09.105Z,8.45
2023-02-07T10:00:37.783Z,9.50
2023-02-07T10:03:22.586Z,8.10
2023-02-07T10:08:21.252Z,8.68
2023-02-07T10:11:06.370Z,8.30
2023-02-07T10:13:48.000Z,7.22
2023-02-07T10:16:42.480Z,8.43
2023-02-07T10:19:37.518Z,7.78
2023-02-07T10:22:23.478Z,7.95
2023-02-07T10:25:15.491Z,7.95
2023-02-07T10:28:14.127Z,8.75
2023-02-07T10:30:52.158Z,6.97
2023-02-07T10:33:25.056Z,8.18
2023-02-07T10:35:53.488Z,7.57
2023-02-07T10:39:07.623Z,8.40
2023-02-07T10:41:38.601Z,7.20
2023-02-07T10:44:09.444Z,7.80
2023-02-07T10:46:37.680Z,8.00
2023-02-07T10:49:04.531Z,8.10
2023-02-07T10:51:38.046Z,7.55
2023-02-07T10:54:11.758Z,8.20
2023-02-07T10:56:45.269Z,7.50
2023-02-07T10:59:39.054Z,7.97
2023-02-07T11:02:31.666Z,7.45
2023-02-07T11:05:16.619Z,6.53
2023-02-07T11:08:12.388Z,6.93
2023-02-07T11:10:41.794Z,5.65
2023-02-07T11:13:21.154Z,6.45
2023-02-07T11:15:56.931Z,6.85
2023-02-07T11:18:53.576Z,7.10
2023-02-07T11:21:40.859Z,6.95
2023-02-07T11:24:29.598Z,6.50
2023-02-07T11:27:02.200Z,7.10
2023-02-07T11:29:31.774Z,7.07
2023-02-07T11:32:00.938Z,6.90
2023-02-07T11:34:42.758Z,6.38
2023-02-07T11:37:17.534Z,6.75
2023-02-07T11:39:45.480Z,6.38
2023-02-07T11:42:17.763Z,7.03
2023-02-07T11:44:45.650Z,7.25
2023-02-07T11:47:28.705Z,6.57
2023-02-07T11:50:00.959Z,8.00
2023-02-07T11:52:29.539Z,7.25
2023-02-07T11:55:00.799Z,6.72
2023-02-07T11:57:30.672Z,7.03
2023-02-07T12:00:22.496Z,7.65
2023-02-07T12:03:19.767Z,6.30
2023-02-07T12:05:51.805Z,6.53
2023-02-07T12:08:22.727Z,5.75
2023-02-07T12:10:53.480Z,5.80
2023-02-07T12:13:28.588Z,6.20
2023-02-07T12:16:04.123Z,6.70
2023-02-07T12:18:43.149Z,6.95
2023-02-07T12:21:18.875Z,7.13
2023-02-07T12:24:04.243Z,6.95
2023-02-07T12:26:37.338Z,7.40
2023-02-07T12:29:47.443Z,7.75
2023-02-07T12:32:30.371Z,7.95
2023-02-07T12:35:28.488Z,6.50
2023-02-07T12:38:01.642Z,6.30
2023-02-07T12:40:39.268Z,6.20
2023-02-07T12:43:21.207Z,7.03
2023-02-07T12:46:00.555Z,7.07
2023-02-07T12:48:48.643Z,6.90
2023-02-07T12:51:49.395Z,7.20
2023-02-07T12:54:49.132Z,7.50
2023-02-07T12:57:28.006Z,6.22
2023-02-07T13:00:33.415Z,6.00
2023-02-07T13:03:18.354Z,7.70
2023-02-07T13:05:54.972Z,7.03
2023-02-07T13:08:43.803Z,6.65
2023-02-07T13:11:27.155Z,7.28
2023-02-07T13:14:04.845Z,7.18
2023-02-07T13:16:46.545Z,6.80
2023-02-07T13:19:37.595Z,7.70
2023-02-07T13:22:17.765Z,6.60
2023-02-07T13:24:47.003Z,6.53
2023-02-07T13:27:20.899Z,6.95
2023-02-07T13:29:50.320Z,6.78
2023-02-07T13:32:27.718Z,5.50
2023-02-07T13:35:18.155Z,6.90
2023-02-07T13:37:44.876Z,7.00
2023-02-07T13:40:33.151Z,6.50
2023-02-07T13:43:07.256Z,7.70
2023-02-07T13:45:59.088Z,6.35
2023-02-07T13:48:42.968Z,8.75
2023-02-07T13:51:27.026Z,6.32
2023-02-07T13:54:36.336Z,5.95
2023-02-07T13:57:22.708Z,6.47
2023-02-07T14:00:08.633Z,6.00
2023-02-07T14:02:46.692Z,6.18
2023-02-07T14:05:23.474Z,6.55
2023-02-07T14:07:58.899Z,6.70
2023-02-07T14:10:45.651Z,6.07
2023-02-07T14:13:26.241Z,6.50
2023-02-07T14:16:02.301Z,6.68
2023-02-07T14:18:47.676Z,6.45
2023-02-07T14:21:21.102Z,5.75
2023-02-07T14:23:53.809Z,6.03
2023-02-07T14:26:42.909Z,5.68
2023-02-07T14:29:25.330Z,6.07
2023-02-07T14:32:17.274Z,6.63
2023-02-07T14:35:05.744Z,6.40
2023-02-07T14:37:49.456Z,5.10
2023-02-07T14:41:01.868Z,5.70
2023-02-07T14:44:03.357Z,4.97
2023-02-07T14:46:48.166Z,5.75
2023-02-07T14:49:25.126Z,5.25
2023-02-07T14:51:58.021Z,5.75
2023-02-07T14:54:42.893Z,4.75
2023-02-07T14:57:21.733Z,5.40
2023-02-07T15:00:15.847Z,6.00
2023-02-07T15:02:54.969Z,5.50
2023-02-07T15:05:31.032Z,5.35
2023-02-07T15:08:03.988Z,5.00
2023-02-07T15:10:44.812Z,4.75
2023-02-07T15:13:22.478Z,4.95
2023-02-07T15:16:05.302Z,4.70
2023-02-07T15:18:40.076Z,4.55
2023-02-07T15:21:15.960Z,4.30
2023-02-07T15:23:42.833Z,4.30
2023-02-07T15:26:10.194Z,4.03
2023-02-07T15:28:37.855Z,3.97
2023-02-07T15:31:06.212Z,4.20
2023-02-07T15:33:38.646Z,4.88
2023-02-07T15:36:27.374Z,4.90
2023-02-07T15:38:55.126Z,4.20
2023-02-07T15:41:21.935Z,3.97
2023-02-07T15:44:19.085Z,4.45
2023-02-07T15:46:48.571Z,3.70
2023-02-07T15:49:41.742Z,5.43
2023-02-07T15:52:30.913Z,4.43
2023-02-07T15:54:59.852Z,3.78
2023-02-07T15:57:40.303Z,4.70
2023-02-07T16:00:14.278Z,3.90
2023-02-07T16:02:47.279Z,4.35
2023-02-07T16:07:47.762Z,4.15
2023-02-07T16:10:22.639Z,3.55
2023-02-07T16:13:19.128Z,3.65
2023-02-07T16:16:00.148Z,3.58
2023-02-07T16:18:37.860Z,3.70
2023-02-07T16:21:10.539Z,3.65
2023-02-07T16:23:37.400Z,3.63
2023-02-07T16:26:04.740Z,3.17
2023-02-07T16:28:32.262Z,3.47
2023-02-07T16:31:00.466Z,3.83
2023-02-07T16:33:27.335Z,3.95
2023-02-07T16:35:54.119Z,3.53
2023-02-07T16:38:20.950Z,3.50
2023-02-07T16:40:48.889Z,3.35
2023-02-07T16:43:42.564Z,4.28
2023-02-07T16:46:09.434Z,3.78
2023-02-07T16:48:36.292Z,3.42
2023-02-07T16:51:03.171Z,3.63
2023-02-07T16:53:30.022Z,3.58
2023-02-07T16:55:58.352Z,3.47
2023-02-07T16:58:28.163Z,3.80
2023-02-07T17:00:55.282Z,3.42
2023-02-07T17:03:23.179Z,3.97
2023-02-07T17:05:50.711Z,3.40
2023-02-07T17:08:26.966Z,3.30
2023-02-07T17:10:59.057Z,4.50
2023-02-07T17:13:26.611Z,4.15
2023-02-07T17:15:53.751Z,4.00
2023-02-07T17:18:21.272Z,4.13
2023-02-07T17:20:48.548Z,5.60
2023-02-07T17:23:15.602Z,4.78
2023-02-07T17:25:43.902Z,3.70
2023-02-07T17:28:14.511Z,3.72
2023-02-07T17:30:42.633Z,3.78
2023-02-07T17:33:10.904Z,3.85
2023-02-07T17:35:38.744Z,4.10
2023-02-07T17:38:05.794Z,4.18
2023-02-07T17:40:36.134Z,4.10
2023-02-07T17:43:04.356Z,3.97
2023-02-07T17:45:32.730Z,3.47
2023-02-07T17:48:00.238Z,4.70
2023-02-07T17:50:35.979Z,3.83
2023-02-07T17:53:03.684Z,4.60
2023-02-07T17:55:32.297Z,4.28
2023-02-07T17:58:00.308Z,4.53
2023-02-07T18:00:36.916Z,4.10
2023-02-07T18:03:05.761Z,4.03
2023-02-07T18:05:33.170Z,3.58
2023-02-07T18:08:00.293Z,4.28
2023-02-07T18:10:30.572Z,3.33
2023-02-07T18:12:58.474Z,4.00
2023-02-07T18:15:26.249Z,3.42
2023-02-07T18:17:54.088Z,3.45
2023-02-07T18:20:24.605Z,4.30
2023-02-07T18:22:52.847Z,3.97
2023-02-07T18:25:19.846Z,4.20
2023-02-07T18:27:47.919Z,3.70
2023-02-07T18:30:15.143Z,4.18
2023-02-07T18:32:42.482Z,5.15
2023-02-07T18:35:09.718Z,5.50
2023-02-07T18:37:36.733Z,4.90
2023-02-07T18:40:04.635Z,5.30
2023-02-07T18:42:31.827Z,5.90
2023-02-07T18:44:58.679Z,5.28
2023-02-07T18:47:25.603Z,5.90
2023-02-07T18:49:52.720Z,6.07
2023-02-07T18:52:19.723Z,4.93
2023-02-07T18:54:46.724Z,5.55
2023-02-07T18:57:13.603Z,5.20
2023-02-07T18:59:40.719Z,5.07
2023-02-07T19:02:08.193Z,5.88
2023-02-07T19:04:35.357Z,5.40
2023-02-07T19:07:02.257Z,5.72
2023-02-07T19:09:29.482Z,6.15
2023-02-07T19:12:00.029Z,5.75
2023-02-07T19:14:31.604Z,5.25
2023-02-07T19:16:59.154Z,5.22
2023-02-07T19:19:28.909Z,5.38
2023-02-07T19:21:56.762Z,5.68
2023-02-07T19:24:24.660Z,5.22
2023-02-07T19:26:54.853Z,5.70
2023-02-07T19:29:28.182Z,4.90
2023-02-07T19:32:03.392Z,5.53
2023-02-07T19:34:31.253Z,5.10
2023-02-07T19:36:58.244Z,5.38
2023-02-07T19:39:25.768Z,5.50
2023-02-07T19:41:52.882Z,5.32
2023-02-07T19:44:20.287Z,5.10
2023-02-07T19:46:47.368Z,5.32
2023-02-07T19:49:15.073Z,4.68
2023-02-07T19:51:42.720Z,4.93
2023-02-07T19:54:10.595Z,4.60
2023-02-07T19:56:37.769Z,4.90
2023-02-07T19:59:06.941Z,5.00
2023-02-07T20:01:37.366Z,5.15
2023-02-07T20:04:05.832Z,4.22
2023-02-07T20:06:34.864Z,5.03
2023-02-07T20:09:04.800Z,6.30
2023-02-07T20:11:31.929Z,22.90
2023-02-07T20:14:03.100Z,24.17
2023-02-07T20:16:33.143Z,12.98
2023-02-07T20:19:00.781Z,8.73
2023-02-07T20:21:29.115Z,6.88
2023-02-07T20:23:57.349Z,5.40
2023-02-07T20:26:28.646Z,5.60
2023-02-07T20:29:00.036Z,5.18
2023-02-07T20:31:27.342Z,4.75
2023-02-07T20:33:55.144Z,5.53
2023-02-07T20:36:22.480Z,4.90
2023-02-07T20:38:50.101Z,4.97
2023-02-07T20:41:35.926Z,5.03
2023-02-07T20:44:05.636Z,5.25
2023-02-07T20:46:35.679Z,5.22
2023-02-07T20:49:11.031Z,5.28
2023-02-07T20:51:38.233Z,5.50
2023-02-07T20:54:07.014Z,5.80
2023-02-07T20:56:34.770Z,5.15
2023-02-07T20:59:02.626Z,4.78
2023-02-07T21:01:32.025Z,5.00
2023-02-07T21:04:01.139Z,4.32
2023-02-07T21:06:28.232Z,4.53
2023-02-07T21:09:00.993Z,5.25
2023-02-07T21:11:33.952Z,4.88
2023-02-07T21:14:02.259Z,4.90
2023-02-07T21:16:31.074Z,5.13
2023-02-07T21:18:58.534Z,5.50
2023-02-07T21:21:25.635Z,5.65
2023-02-07T21:23:52.877Z,5.60
2023-02-07T21:26:19.794Z,5.25
2023-02-07T21:28:47.993Z,5.95
2023-02-07T21:31:20.097Z,5.43
2023-02-07T21:33:49.638Z,5.65
2023-02-07T21:36:19.592Z,6.20
2023-02-07T21:38:48.739Z,5.88
2023-02-07T21:41:17.575Z,6.57
2023-02-07T21:43:44.415Z,6.28
2023-02-07T21:46:17.904Z,5.90
2023-02-07T21:48:47.039Z,6.32
2023-02-07T21:51:23.264Z,6.95
2023-02-07T21:53:52.283Z,6.68
2023-02-07T21:56:24.350Z,7.03
2023-02-07T21:58:58.836Z,7.25
2023-02-07T22:01:26.980Z,6.90
2023-02-07T22:03:56.285Z,6.75
2023-02-07T22:06:23.171Z,6.75
2023-02-07T22:08:56.205Z,7.05
2023-02-07T22:11:24.951Z,7.22
2023-02-07T22:13:52.793Z,7.18
2023-02-07T22:16:22.058Z,6.80
2023-02-07T22:18:49.143Z,6.13
2023-02-07T22:21:21.492Z,6.85
2023-02-07T22:23:48.857Z,5.95
2023-02-07T22:26:17.740Z,6.72
2023-02-07T22:28:45.359Z,6.80
2023-02-07T22:31:14.530Z,7.28
2023-02-07T22:33:42.086Z,7.00
2023-02-07T22:36:13.717Z,7.70
2023-02-07T22:38:40.609Z,6.43
2023-02-07T22:41:07.508Z,8.18
2023-02-07T22:43:34.695Z,7.70
2023-02-07T22:46:05.884Z,7.40
2023-02-07T22:48:34.062Z,6.80
2023-02-07T22:51:25.109Z,7.70
2023-02-07T22:53:55.745Z,7.30
2023-02-07T22:56:23.105Z,6.70
2023-02-07T22:58:50.234Z,7.82
2023-02-07T23:01:24.386Z,7.38
2023-02-07T23:03:52.277Z,8.45
2023-02-07T23:06:20.649Z,7.78
2023-02-07T23:08:47.836Z,8.00
2023-02-07T23:11:16.439Z,7.55
2023-02-07T23:13:43.801Z,7.78
2023-02-07T23:16:16.350Z,8.05
2023-02-07T23:18:43.434Z,8.05
2023-02-07T23:21:12.117Z,8.18
2023-02-07T23:23:39.920Z,7.80
2023-02-07T23:26:11.976Z,7.57
2023-02-07T23:28:39.523Z,7.57
2023-02-07T23:31:08.544Z,8.38
2023-02-07T23:33:36.281Z,7.50
2023-02-07T23:36:04.041Z,7.50
2023-02-07T23:38:31.053Z,7.53
2023-02-07T23:40:58.097Z,7.95
2023-02-07T23:43:25.340Z,7.30
2023-02-07T23:45:52.302Z,7.80
2023-02-07T23:48:19.194Z,7.43
2023-02-07T23:50:52.798Z,6.95
2023-02-07T23:53:19.933Z,7.03
2023-02-07T23:55:46.961Z,6.53
2023-02-07T23:58:13.769Z,6.30
